sensor_id;sensor_type;location;lat;lon;timestamp;P1;durP1;ratioP1;P2;durP2;ratioP2
15155;SDS011;7678;50.058;8.306;2022-12-18T00:00:21;154.40;;;53.60;;
15155;SDS011;7678;50.058;8.306;2022-12-18T00:02:49;95.77;;;51.97;;
15155;SDS011;7678;50.058;8.306;2022-12-18T00:05:17;129.77;;;58.50;;
15155;SDS011;7678;50.058;8.306;2022-12-18T00:07:48;171.17;;;57.43;;
15155;SDS011;7678;50.058;8.306;2022-12-18T00:10:22;126.27;;;54.70;;
15155;SDS011;7678;50.058;8.306;2022-12-18T00:12:52;112.40;;;52.10;;
15155;SDS011;7678;50.058;8.306;2022-12-18T00:15:21;134.77;;;57.00;;
15155;SDS011;7678;50.058;8.306;2022-12-18T00:17:49;155.03;;;51.47;;
15155;SDS011;7678;50.058;8.306;2022-12-18T00:20:18;124.90;;;49.47;;
15155;SDS011;7678;50.058;8.306;2022-12-18T00:22:54;108.67;;;58.80;;
15155;SDS011;7678;50.058;8.306;2022-12-18T00:25:22;130.40;;;51.07;;
15155;SDS011;7678;50.058;8.306;2022-12-18T00:27:52;119.73;;;60.50;;
15155;SDS011;7678;50.058;8.306;2022-12-18T00:30:20;126.83;;;49.90;;
15155;SDS011;7678;50.058;8.306;2022-12-18T00:32:51;103.97;;;56.00;;
15155;SDS011;7678;50.058;8.306;2022-12-18T00:35:28;105.85;;;58.63;;
15155;SDS011;7678;50.058;8.306;2022-12-18T00:37:58;94.80;;;52.40;;
15155;SDS011;7678;50.058;8.306;2022-12-18T00:40:28;99.93;;;54.30;;
15155;SDS011;7678;50.058;8.306;2022-12-18T00:43:00;91.20;;;53.27;;
15155;SDS011;7678;50.058;8.306;2022-12-18T00:45:31;93.03;;;51.43;;
15155;SDS011;7678;50.058;8.306;2022-12-18T00:48:01;86.60;;;49.90;;
15155;SDS011;7678;50.058;8.306;2022-12-18T00:50:33;86.13;;;50.13;;
15155;SDS011;7678;50.058;8.306;2022-12-18T00:53:01;100.03;;;45.50;;
15155;SDS011;7678;50.058;8.306;2022-12-18T00:55:31;87.07;;;50.30;;
15155;SDS011;7678;50.058;8.306;2022-12-18T00:58:01;105.27;;;44.63;;
15155;SDS011;7678;50.058;8.306;2022-12-18T01:00:28;99.97;;;44.87;;
15155;SDS011;7678;50.058;8.306;2022-12-18T01:02:56;107.27;;;44.57;;
15155;SDS011;7678;50.058;8.306;2022-12-18T01:05:25;103.03;;;46.53;;
15155;SDS011;7678;50.058;8.306;2022-12-18T01:07:54;106.77;;;47.77;;
15155;SDS011;7678;50.058;8.306;2022-12-18T01:10:25;104.83;;;46.17;;
15155;SDS011;7678;50.058;8.306;2022-12-18T01:12:56;100.83;;;45.43;;
15155;SDS011;7678;50.058;8.306;2022-12-18T01:15:25;99.10;;;44.60;;
15155;SDS011;7678;50.058;8.306;2022-12-18T01:17:53;97.83;;;45.43;;
15155;SDS011;7678;50.058;8.306;2022-12-18T01:20:26;101.57;;;45.63;;
15155;SDS011;7678;50.058;8.306;2022-12-18T01:22:59;95.83;;;43.50;;
15155;SDS011;7678;50.058;8.306;2022-12-18T01:25:31;98.40;;;42.63;;
15155;SDS011;7678;50.058;8.306;2022-12-18T01:28:03;92.87;;;43.43;;
15155;SDS011;7678;50.058;8.306;2022-12-18T01:30:32;89.23;;;42.70;;
15155;SDS011;7678;50.058;8.306;2022-12-18T01:33:00;89.40;;;40.80;;
15155;SDS011;7678;50.058;8.306;2022-12-18T01:35:28;84.03;;;41.50;;
15155;SDS011;7678;50.058;8.306;2022-12-18T01:37:58;83.87;;;41.53;;
15155;SDS011;7678;50.058;8.306;2022-12-18T01:40:26;87.07;;;42.03;;
15155;SDS011;7678;50.058;8.306;2022-12-18T01:42:59;81.20;;;40.97;;
15155;SDS011;7678;50.058;8.306;2022-12-18T01:45:28;85.10;;;41.72;;
15155;SDS011;7678;50.058;8.306;2022-12-18T01:48:02;79.37;;;38.87;;
15155;SDS011;7678;50.058;8.306;2022-12-18T01:50:35;76.97;;;38.15;;
15155;SDS011;7678;50.058;8.306;2022-12-18T01:53:11;75.55;;;38.67;;
15155;SDS011;7678;50.058;8.306;2022-12-18T01:55:45;77.03;;;38.45;;
15155;SDS011;7678;50.058;8.306;2022-12-18T01:58:17;76.23;;;38.27;;
15155;SDS011;7678;50.058;8.306;2022-12-18T02:00:48;76.78;;;37.90;;
15155;SDS011;7678;50.058;8.306;2022-12-18T02:03:19;60.53;;;40.25;;
15155;SDS011;7678;50.058;8.306;2022-12-18T02:05:51;77.53;;;36.50;;
15155;SDS011;7678;50.058;8.306;2022-12-18T02:08:29;69.60;;;35.42;;
15155;SDS011;7678;50.058;8.306;2022-12-18T02:11:03;70.22;;;35.63;;
15155;SDS011;7678;50.058;8.306;2022-12-18T02:13:37;71.20;;;36.03;;
15155;SDS011;7678;50.058;8.306;2022-12-18T02:16:13;70.55;;;35.45;;
15155;SDS011;7678;50.058;8.306;2022-12-18T02:18:51;68.38;;;34.72;;
15155;SDS011;7678;50.058;8.306;2022-12-18T02:21:26;63.33;;;33.63;;
15155;SDS011;7678;50.058;8.306;2022-12-18T02:24:04;67.38;;;34.03;;
15155;SDS011;7678;50.058;8.306;2022-12-18T02:26:46;67.23;;;35.03;;
15155;SDS011;7678;50.058;8.306;2022-12-18T02:29:20;71.60;;;36.43;;
15155;SDS011;7678;50.058;8.306;2022-12-18T02:31:56;68.53;;;35.47;;
15155;SDS011;7678;50.058;8.306;2022-12-18T02:34:30;65.40;;;34.87;;
15155;SDS011;7678;50.058;8.306;2022-12-18T02:37:04;72.30;;;35.20;;
15155;SDS011;7678;50.058;8.306;2022-12-18T02:39:39;63.53;;;33.75;;
15155;SDS011;7678;50.058;8.306;2022-12-18T02:42:11;60.22;;;32.47;;
15155;SDS011;7678;50.058;8.306;2022-12-18T02:44:43;59.30;;;32.33;;
15155;SDS011;7678;50.058;8.306;2022-12-18T02:47:12;50.58;;;35.92;;
15155;SDS011;7678;50.058;8.306;2022-12-18T02:49:44;62.37;;;32.90;;
15155;SDS011;7678;50.058;8.306;2022-12-18T02:52:23;45.63;;;33.83;;
15155;SDS011;7678;50.058;8.306;2022-12-18T02:55:04;63.27;;;32.93;;
15155;SDS011;7678;50.058;8.306;2022-12-18T02:57:45;57.37;;;33.10;;
15155;SDS011;7678;50.058;8.306;2022-12-18T03:00:17;57.92;;;31.38;;
15155;SDS011;7678;50.058;8.306;2022-12-18T03:02:53;56.63;;;31.25;;
15155;SDS011;7678;50.058;8.306;2022-12-18T03:05:27;46.05;;;34.17;;
15155;SDS011;7678;50.058;8.306;2022-12-18T03:07:59;47.03;;;32.95;;
15155;SDS011;7678;50.058;8.306;2022-12-18T03:10:35;56.70;;;29.90;;
15155;SDS011;7678;50.058;8.306;2022-12-18T03:13:12;43.63;;;32.33;;
15155;SDS011;7678;50.058;8.306;2022-12-18T03:15:45;55.50;;;30.40;;
15155;SDS011;7678;50.058;8.306;2022-12-18T03:18:23;42.83;;;32.10;;
15155;SDS011;7678;50.058;8.306;2022-12-18T03:20:53;57.53;;;30.20;;
15155;SDS011;7678;50.058;8.306;2022-12-18T03:23:38;52.45;;;28.92;;
15155;SDS011;7678;50.058;8.306;2022-12-18T03:26:11;51.75;;;29.77;;
15155;SDS011;7678;50.058;8.306;2022-12-18T03:28:45;49.47;;;28.77;;
15155;SDS011;7678;50.058;8.306;2022-12-18T03:31:17;51.08;;;29.60;;
15155;SDS011;7678;50.058;8.306;2022-12-18T03:33:53;48.33;;;29.27;;
15155;SDS011;7678;50.058;8.306;2022-12-18T03:36:25;49.25;;;30.30;;
15155;SDS011;7678;50.058;8.306;2022-12-18T03:38:56;50.38;;;28.88;;
15155;SDS011;7678;50.058;8.306;2022-12-18T03:41:28;51.13;;;29.70;;
15155;SDS011;7678;50.058;8.306;2022-12-18T03:44:02;41.45;;;30.27;;
15155;SDS011;7678;50.058;8.306;2022-12-18T03:46:38;54.10;;;30.45;;
15155;SDS011;7678;50.058;8.306;2022-12-18T03:49:13;49.78;;;29.92;;
15155;SDS011;7678;50.058;8.306;2022-12-18T03:51:48;49.97;;;28.95;;
15155;SDS011;7678;50.058;8.306;2022-12-18T03:54:20;49.88;;;28.23;;
15155;SDS011;7678;50.058;8.306;2022-12-18T03:56:50;50.97;;;28.70;;
15155;SDS011;7678;50.058;8.306;2022-12-18T03:59:25;52.00;;;28.58;;
15155;SDS011;7678;50.058;8.306;2022-12-18T04:01:54;51.78;;;29.40;;
15155;SDS011;7678;50.058;8.306;2022-12-18T04:04:24;50.42;;;30.77;;
15155;SDS011;7678;50.058;8.306;2022-12-18T04:06:54;48.20;;;29.80;;
15155;SDS011;7678;50.058;8.306;2022-12-18T04:09:31;57.85;;;32.45;;
15155;SDS011;7678;50.058;8.306;2022-12-18T04:12:05;51.40;;;31.77;;
15155;SDS011;7678;50.058;8.306;2022-12-18T04:14:35;54.80;;;32.20;;
15155;SDS011;7678;50.058;8.306;2022-12-18T04:17:05;54.37;;;33.17;;
15155;SDS011;7678;50.058;8.306;2022-12-18T04:19:36;46.07;;;35.93;;
15155;SDS011;7678;50.058;8.306;2022-12-18T04:22:08;46.60;;;37.40;;
15155;SDS011;7678;50.058;8.306;2022-12-18T04:24:38;55.53;;;33.60;;
15155;SDS011;7678;50.058;8.306;2022-12-18T04:27:09;58.77;;;34.77;;
15155;SDS011;7678;50.058;8.306;2022-12-18T04:29:38;45.87;;;35.90;;
15155;SDS011;7678;50.058;8.306;2022-12-18T04:32:08;48.93;;;37.03;;
15155;SDS011;7678;50.058;8.306;2022-12-18T04:34:36;46.83;;;37.30;;
15155;SDS011;7678;50.058;8.306;2022-12-18T04:37:04;60.40;;;36.00;;
15155;SDS011;7678;50.058;8.306;2022-12-18T04:39:32;55.57;;;35.63;;
15155;SDS011;7678;50.058;8.306;2022-12-18T04:42:02;59.87;;;37.23;;
15155;SDS011;7678;50.058;8.306;2022-12-18T04:44:36;57.33;;;35.80;;
15155;SDS011;7678;50.058;8.306;2022-12-18T04:47:05;61.37;;;36.87;;
15155;SDS011;7678;50.058;8.306;2022-12-18T04:49:33;64.17;;;38.07;;
15155;SDS011;7678;50.058;8.306;2022-12-18T04:52:01;58.23;;;38.00;;
15155;SDS011;7678;50.058;8.306;2022-12-18T04:54:42;51.07;;;39.60;;
15155;SDS011;7678;50.058;8.306;2022-12-18T04:57:13;49.17;;;37.43;;
15155;SDS011;7678;50.058;8.306;2022-12-18T04:59:42;49.70;;;38.13;;
15155;SDS011;7678;50.058;8.306;2022-12-18T05:02:15;48.70;;;37.97;;
15155;SDS011;7678;50.058;8.306;2022-12-18T05:04:43;64.37;;;37.70;;
15155;SDS011;7678;50.058;8.306;2022-12-18T05:07:11;62.10;;;38.10;;
15155;SDS011;7678;50.058;8.306;2022-12-18T05:09:44;59.03;;;36.47;;
15155;SDS011;7678;50.058;8.306;2022-12-18T05:12:12;48.67;;;37.53;;
15155;SDS011;7678;50.058;8.306;2022-12-18T05:14:43;51.70;;;38.40;;
15155;SDS011;7678;50.058;8.306;2022-12-18T05:17:10;48.47;;;38.23;;
15155;SDS011;7678;50.058;8.306;2022-12-18T05:19:41;49.27;;;37.30;;
15155;SDS011;7678;50.058;8.306;2022-12-18T05:22:11;56.33;;;36.33;;
15155;SDS011;7678;50.058;8.306;2022-12-18T05:24:39;67.33;;;38.57;;
15155;SDS011;7678;50.058;8.306;2022-12-18T05:27:09;50.50;;;37.87;;
15155;SDS011;7678;50.058;8.306;2022-12-18T05:29:37;50.30;;;37.73;;
15155;SDS011;7678;50.058;8.306;2022-12-18T05:32:10;46.00;;;36.47;;
15155;SDS011;7678;50.058;8.306;2022-12-18T05:34:41;47.43;;;37.30;;
15155;SDS011;7678;50.058;8.306;2022-12-18T05:37:09;52.83;;;38.80;;
15155;SDS011;7678;50.058;8.306;2022-12-18T05:39:37;50.83;;;37.60;;
15155;SDS011;7678;50.058;8.306;2022-12-18T05:42:09;63.27;;;37.87;;
15155;SDS011;7678;50.058;8.306;2022-12-18T05:44:40;58.63;;;36.97;;
15155;SDS011;7678;50.058;8.306;2022-12-18T05:47:11;59.70;;;38.07;;
15155;SDS011;7678;50.058;8.306;2022-12-18T05:49:39;52.93;;;39.43;;
15155;SDS011;7678;50.058;8.306;2022-12-18T05:52:08;51.37;;;38.37;;
15155;SDS011;7678;50.058;8.306;2022-12-18T05:54:36;51.97;;;38.23;;
15155;SDS011;7678;50.058;8.306;2022-12-18T05:57:07;50.30;;;38.97;;
15155;SDS011;7678;50.058;8.306;2022-12-18T05:59:37;50.23;;;37.53;;
15155;SDS011;7678;50.058;8.306;2022-12-18T06:02:07;47.80;;;36.43;;
15155;SDS011;7678;50.058;8.306;2022-12-18T06:04:40;49.10;;;37.43;;
15155;SDS011;7678;50.058;8.306;2022-12-18T06:07:10;47.73;;;36.60;;
15155;SDS011;7678;50.058;8.306;2022-12-18T06:09:41;46.57;;;35.97;;
15155;SDS011;7678;50.058;8.306;2022-12-18T06:12:09;46.67;;;36.40;;
15155;SDS011;7678;50.058;8.306;2022-12-18T06:14:43;50.97;;;36.87;;
15155;SDS011;7678;50.058;8.306;2022-12-18T06:17:11;60.03;;;36.37;;
15155;SDS011;7678;50.058;8.306;2022-12-18T06:19:45;47.93;;;37.23;;
15155;SDS011;7678;50.058;8.306;2022-12-18T06:22:18;43.87;;;35.07;;
15155;SDS011;7678;50.058;8.306;2022-12-18T06:24:46;47.90;;;36.53;;
15155;SDS011;7678;50.058;8.306;2022-12-18T06:27:14;46.20;;;35.13;;
15155;SDS011;7678;50.058;8.306;2022-12-18T06:29:46;56.87;;;35.57;;
15155;SDS011;7678;50.058;8.306;2022-12-18T06:32:14;50.20;;;35.27;;
15155;SDS011;7678;50.058;8.306;2022-12-18T06:34:47;48.57;;;36.03;;
15155;SDS011;7678;50.058;8.306;2022-12-18T06:37:15;44.83;;;34.77;;
15155;SDS011;7678;50.058;8.306;2022-12-18T06:39:51;45.03;;;35.20;;
15155;SDS011;7678;50.058;8.306;2022-12-18T06:42:19;45.17;;;34.33;;
15155;SDS011;7678;50.058;8.306;2022-12-18T06:44:49;57.60;;;33.97;;
15155;SDS011;7678;50.058;8.306;2022-12-18T06:47:17;45.40;;;33.77;;
15155;SDS011;7678;50.058;8.306;2022-12-18T06:49:49;44.73;;;34.57;;
15155;SDS011;7678;50.058;8.306;2022-12-18T06:52:19;46.13;;;34.47;;
15155;SDS011;7678;50.058;8.306;2022-12-18T06:54:48;43.67;;;33.23;;
15155;SDS011;7678;50.058;8.306;2022-12-18T06:57:16;43.97;;;33.83;;
15155;SDS011;7678;50.058;8.306;2022-12-18T06:59:44;43.23;;;33.20;;
15155;SDS011;7678;50.058;8.306;2022-12-18T07:02:12;41.00;;;32.70;;
15155;SDS011;7678;50.058;8.306;2022-12-18T07:04:40;43.90;;;33.10;;
15155;SDS011;7678;50.058;8.306;2022-12-18T07:07:08;42.33;;;32.97;;
15155;SDS011;7678;50.058;8.306;2022-12-18T07:09:40;42.17;;;32.47;;
15155;SDS011;7678;50.058;8.306;2022-12-18T07:12:08;41.93;;;32.53;;
15155;SDS011;7678;50.058;8.306;2022-12-18T07:14:37;42.35;;;32.15;;
15155;SDS011;7678;50.058;8.306;2022-12-18T07:17:05;43.77;;;31.90;;
15155;SDS011;7678;50.058;8.306;2022-12-18T07:19:33;39.27;;;31.47;;
15155;SDS011;7678;50.058;8.306;2022-12-18T07:22:01;39.17;;;31.13;;
15155;SDS011;7678;50.058;8.306;2022-12-18T07:24:30;39.87;;;31.30;;
15155;SDS011;7678;50.058;8.306;2022-12-18T07:27:00;36.50;;;29.33;;
15155;SDS011;7678;50.058;8.306;2022-12-18T07:29:29;38.80;;;30.20;;
15155;SDS011;7678;50.058;8.306;2022-12-18T07:31:57;40.47;;;29.30;;
15155;SDS011;7678;50.058;8.306;2022-12-18T07:34:25;40.10;;;29.67;;
15155;SDS011;7678;50.058;8.306;2022-12-18T07:36:53;40.40;;;29.90;;
15155;SDS011;7678;50.058;8.306;2022-12-18T07:39:22;39.87;;;30.60;;
15155;SDS011;7678;50.058;8.306;2022-12-18T07:41:50;39.83;;;30.23;;
15155;SDS011;7678;50.058;8.306;2022-12-18T07:44:34;40.97;;;29.97;;
15155;SDS011;7678;50.058;8.306;2022-12-18T07:47:02;43.77;;;33.20;;
15155;SDS011;7678;50.058;8.306;2022-12-18T07:49:37;46.53;;;34.47;;
15155;SDS011;7678;50.058;8.306;2022-12-18T07:52:07;45.07;;;34.10;;
15155;SDS011;7678;50.058;8.306;2022-12-18T07:54:39;53.80;;;32.00;;
15155;SDS011;7678;50.058;8.306;2022-12-18T07:57:11;47.47;;;35.27;;
15155;SDS011;7678;50.058;8.306;2022-12-18T08:00:03;46.53;;;34.53;;
15155;SDS011;7678;50.058;8.306;2022-12-18T08:02:32;43.17;;;33.90;;
15155;SDS011;7678;50.058;8.306;2022-12-18T08:05:00;51.57;;;32.97;;
15155;SDS011;7678;50.058;8.306;2022-12-18T08:07:28;52.43;;;32.33;;
15155;SDS011;7678;50.058;8.306;2022-12-18T08:09:59;45.77;;;35.10;;
15155;SDS011;7678;50.058;8.306;2022-12-18T08:12:27;49.43;;;34.60;;
15155;SDS011;7678;50.058;8.306;2022-12-18T08:14:55;46.27;;;35.47;;
15155;SDS011;7678;50.058;8.306;2022-12-18T08:17:24;55.77;;;32.27;;
15155;SDS011;7678;50.058;8.306;2022-12-18T08:19:52;45.97;;;35.40;;
15155;SDS011;7678;50.058;8.306;2022-12-18T08:22:20;54.30;;;32.80;;
15155;SDS011;7678;50.058;8.306;2022-12-18T08:24:48;46.07;;;35.03;;
15155;SDS011;7678;50.058;8.306;2022-12-18T08:27:16;43.67;;;33.30;;
15155;SDS011;7678;50.058;8.306;2022-12-18T08:29:57;46.30;;;34.30;;
15155;SDS011;7678;50.058;8.306;2022-12-18T08:32:27;47.47;;;36.33;;
15155;SDS011;7678;50.058;8.306;2022-12-18T08:34:55;59.67;;;33.87;;
15155;SDS011;7678;50.058;8.306;2022-12-18T08:37:23;62.57;;;35.20;;
15155;SDS011;7678;50.058;8.306;2022-12-18T08:39:52;47.47;;;35.23;;
15155;SDS011;7678;50.058;8.306;2022-12-18T08:42:21;55.40;;;32.10;;
15155;SDS011;7678;50.058;8.306;2022-12-18T08:45:08;47.90;;;30.37;;
15155;SDS011;7678;50.058;8.306;2022-12-18T08:47:37;42.10;;;30.63;;
15155;SDS011;7678;50.058;8.306;2022-12-18T08:50:05;41.17;;;31.30;;
15155;SDS011;7678;50.058;8.306;2022-12-18T08:52:34;42.87;;;31.03;;
15155;SDS011;7678;50.058;8.306;2022-12-18T08:55:04;41.57;;;30.50;;
15155;SDS011;7678;50.058;8.306;2022-12-18T08:57:33;42.37;;;32.50;;
15155;SDS011;7678;50.058;8.306;2022-12-18T09:00:01;43.47;;;33.13;;
15155;SDS011;7678;50.058;8.306;2022-12-18T09:02:31;41.83;;;31.87;;
15155;SDS011;7678;50.058;8.306;2022-12-18T09:05:00;40.30;;;31.70;;
15155;SDS011;7678;50.058;8.306;2022-12-18T09:07:28;44.37;;;32.97;;
15155;SDS011;7678;50.058;8.306;2022-12-18T09:09:56;47.23;;;35.33;;
15155;SDS011;7678;50.058;8.306;2022-12-18T09:12:26;58.00;;;35.63;;
15155;SDS011;7678;50.058;8.306;2022-12-18T09:14:54;54.17;;;34.37;;
15155;SDS011;7678;50.058;8.306;2022-12-18T09:17:22;54.13;;;34.77;;
15155;SDS011;7678;50.058;8.306;2022-12-18T09:19:50;47.63;;;35.20;;
15155;SDS011;7678;50.058;8.306;2022-12-18T09:22:20;52.73;;;32.63;;
15155;SDS011;7678;50.058;8.306;2022-12-18T09:24:48;45.93;;;35.03;;
15155;SDS011;7678;50.058;8.306;2022-12-18T09:27:16;49.90;;;37.03;;
15155;SDS011;7678;50.058;8.306;2022-12-18T09:29:47;47.70;;;35.00;;
15155;SDS011;7678;50.058;8.306;2022-12-18T09:32:15;46.40;;;35.17;;
15155;SDS011;7678;50.058;8.306;2022-12-18T09:34:47;55.70;;;37.27;;
15155;SDS011;7678;50.058;8.306;2022-12-18T09:37:16;47.93;;;36.70;;
15155;SDS011;7678;50.058;8.306;2022-12-18T09:39:47;42.07;;;32.83;;
15155;SDS011;7678;50.058;8.306;2022-12-18T09:42:17;45.73;;;34.47;;
15155;SDS011;7678;50.058;8.306;2022-12-18T09:44:49;47.90;;;36.63;;
15155;SDS011;7678;50.058;8.306;2022-12-18T09:47:19;42.77;;;33.50;;
15155;SDS011;7678;50.058;8.306;2022-12-18T09:49:53;45.33;;;34.40;;
15155;SDS011;7678;50.058;8.306;2022-12-18T09:52:26;45.07;;;34.00;;
15155;SDS011;7678;50.058;8.306;2022-12-18T09:54:59;59.17;;;37.67;;
15155;SDS011;7678;50.058;8.306;2022-12-18T09:57:33;55.10;;;37.07;;
15155;SDS011;7678;50.058;8.306;2022-12-18T10:00:15;48.67;;;36.17;;
15155;SDS011;7678;50.058;8.306;2022-12-18T10:02:46;46.60;;;33.60;;
15155;SDS011;7678;50.058;8.306;2022-12-18T10:05:16;43.00;;;33.33;;
15155;SDS011;7678;50.058;8.306;2022-12-18T10:07:53;49.60;;;36.03;;
15155;SDS011;7678;50.058;8.306;2022-12-18T10:10:29;46.70;;;35.00;;
15155;SDS011;7678;50.058;8.306;2022-12-18T10:13:10;44.77;;;34.13;;
15155;SDS011;7678;50.058;8.306;2022-12-18T10:15:52;44.77;;;34.17;;
15155;SDS011;7678;50.058;8.306;2022-12-18T10:18:39;45.43;;;33.63;;
15155;SDS011;7678;50.058;8.306;2022-12-18T10:21:24;48.00;;;35.47;;
15155;SDS011;7678;50.058;8.306;2022-12-18T10:23:59;49.13;;;35.00;;
15155;SDS011;7678;50.058;8.306;2022-12-18T10:26:34;49.30;;;34.67;;
15155;SDS011;7678;50.058;8.306;2022-12-18T10:29:04;51.83;;;33.63;;
15155;SDS011;7678;50.058;8.306;2022-12-18T10:31:38;49.17;;;34.17;;
15155;SDS011;7678;50.058;8.306;2022-12-18T10:34:08;49.03;;;34.50;;
15155;SDS011;7678;50.058;8.306;2022-12-18T10:36:37;53.67;;;36.03;;
15155;SDS011;7678;50.058;8.306;2022-12-18T10:39:15;51.43;;;35.80;;
15155;SDS011;7678;50.058;8.306;2022-12-18T10:41:45;51.27;;;33.57;;
15155;SDS011;7678;50.058;8.306;2022-12-18T10:44:17;47.97;;;33.03;;
15155;SDS011;7678;50.058;8.306;2022-12-18T10:46:46;49.10;;;33.83;;
15155;SDS011;7678;50.058;8.306;2022-12-18T10:49:21;51.50;;;36.23;;
15155;SDS011;7678;50.058;8.306;2022-12-18T10:51:51;50.80;;;34.90;;
15155;SDS011;7678;50.058;8.306;2022-12-18T10:54:32;52.40;;;34.73;;
15155;SDS011;7678;50.058;8.306;2022-12-18T10:57:15;54.23;;;35.50;;
15155;SDS011;7678;50.058;8.306;2022-12-18T10:59:53;53.27;;;36.63;;
15155;SDS011;7678;50.058;8.306;2022-12-18T11:02:26;52.47;;;35.40;;
15155;SDS011;7678;50.058;8.306;2022-12-18T11:05:00;56.80;;;39.77;;
15155;SDS011;7678;50.058;8.306;2022-12-18T11:07:40;52.97;;;38.30;;
15155;SDS011;7678;50.058;8.306;2022-12-18T11:10:16;51.63;;;37.40;;
15155;SDS011;7678;50.058;8.306;2022-12-18T11:12:47;52.47;;;36.47;;
15155;SDS011;7678;50.058;8.306;2022-12-18T11:15:16;62.00;;;42.83;;
15155;SDS011;7678;50.058;8.306;2022-12-18T11:17:47;55.40;;;38.00;;
15155;SDS011;7678;50.058;8.306;2022-12-18T11:20:21;58.27;;;37.03;;
15155;SDS011;7678;50.058;8.306;2022-12-18T11:22:55;53.90;;;36.53;;
15155;SDS011;7678;50.058;8.306;2022-12-18T11:25:27;62.23;;;40.83;;
15155;SDS011;7678;50.058;8.306;2022-12-18T11:28:00;53.60;;;36.70;;
15155;SDS011;7678;50.058;8.306;2022-12-18T11:30:30;54.33;;;35.47;;
15155;SDS011;7678;50.058;8.306;2022-12-18T11:33:01;68.57;;;44.53;;
15155;SDS011;7678;50.058;8.306;2022-12-18T11:35:35;51.53;;;35.17;;
15155;SDS011;7678;50.058;8.306;2022-12-18T11:38:14;54.50;;;37.07;;
15155;SDS011;7678;50.058;8.306;2022-12-18T11:40:50;56.17;;;36.97;;
15155;SDS011;7678;50.058;8.306;2022-12-18T11:43:27;55.67;;;37.33;;
15155;SDS011;7678;50.058;8.306;2022-12-18T11:45:59;58.73;;;37.73;;
15155;SDS011;7678;50.058;8.306;2022-12-18T11:48:32;66.13;;;42.20;;
15155;SDS011;7678;50.058;8.306;2022-12-18T11:51:08;59.73;;;37.43;;
15155;SDS011;7678;50.058;8.306;2022-12-18T11:53:43;56.07;;;37.37;;
15155;SDS011;7678;50.058;8.306;2022-12-18T11:56:17;67.13;;;40.90;;
15155;SDS011;7678;50.058;8.306;2022-12-18T11:58:57;55.07;;;37.60;;
15155;SDS011;7678;50.058;8.306;2022-12-18T12:01:35;54.87;;;37.27;;
15155;SDS011;7678;50.058;8.306;2022-12-18T12:04:19;57.20;;;38.50;;
15155;SDS011;7678;50.058;8.306;2022-12-18T12:07:04;54.57;;;37.03;;
15155;SDS011;7678;50.058;8.306;2022-12-18T12:09:43;57.30;;;38.20;;
15155;SDS011;7678;50.058;8.306;2022-12-18T12:12:22;61.13;;;39.17;;
15155;SDS011;7678;50.058;8.306;2022-12-18T12:15:19;56.73;;;37.17;;
15155;SDS011;7678;50.058;8.306;2022-12-18T12:17:55;56.30;;;37.13;;
15155;SDS011;7678;50.058;8.306;2022-12-18T12:20:41;56.43;;;37.63;;
15155;SDS011;7678;50.058;8.306;2022-12-18T12:23:23;54.00;;;36.93;;
15155;SDS011;7678;50.058;8.306;2022-12-18T12:25:59;58.00;;;38.23;;
15155;SDS011;7678;50.058;8.306;2022-12-18T12:31:29;56.67;;;38.00;;
15155;SDS011;7678;50.058;8.306;2022-12-18T12:34:13;57.27;;;37.63;;
15155;SDS011;7678;50.058;8.306;2022-12-18T12:36:55;57.30;;;36.63;;
15155;SDS011;7678;50.058;8.306;2022-12-18T12:39:35;62.40;;;37.60;;
15155;SDS011;7678;50.058;8.306;2022-12-18T12:42:05;60.23;;;37.73;;
15155;SDS011;7678;50.058;8.306;2022-12-18T12:44:57;55.87;;;38.10;;
15155;SDS011;7678;50.058;8.306;2022-12-18T12:47:32;59.60;;;37.77;;
15155;SDS011;7678;50.058;8.306;2022-12-18T12:50:06;57.67;;;37.23;;
15155;SDS011;7678;50.058;8.306;2022-12-18T12:52:45;61.60;;;37.53;;
15155;SDS011;7678;50.058;8.306;2022-12-18T12:55:17;57.67;;;37.17;;
15155;SDS011;7678;50.058;8.306;2022-12-18T12:57:52;58.10;;;36.87;;
15155;SDS011;7678;50.058;8.306;2022-12-18T13:00:29;57.63;;;36.03;;
15155;SDS011;7678;50.058;8.306;2022-12-18T13:03:08;61.03;;;35.77;;
15155;SDS011;7678;50.058;8.306;2022-12-18T13:05:43;61.40;;;37.00;;
15155;SDS011;7678;50.058;8.306;2022-12-18T13:08:24;62.23;;;37.53;;
15155;SDS011;7678;50.058;8.306;2022-12-18T13:11:00;60.57;;;38.30;;
15155;SDS011;7678;50.058;8.306;2022-12-18T13:14:01;61.13;;;38.57;;
15155;SDS011;7678;50.058;8.306;2022-12-18T13:16:30;65.70;;;37.97;;
15155;SDS011;7678;50.058;8.306;2022-12-18T13:19:02;62.97;;;38.47;;
15155;SDS011;7678;50.058;8.306;2022-12-18T13:21:32;65.63;;;39.27;;
15155;SDS011;7678;50.058;8.306;2022-12-18T13:24:14;62.80;;;37.43;;
15155;SDS011;7678;50.058;8.306;2022-12-18T13:26:47;60.63;;;37.83;;
15155;SDS011;7678;50.058;8.306;2022-12-18T13:29:35;60.77;;;36.37;;
15155;SDS011;7678;50.058;8.306;2022-12-18T13:32:22;64.83;;;39.27;;
15155;SDS011;7678;50.058;8.306;2022-12-18T13:38:18;66.10;;;39.83;;
15155;SDS011;7678;50.058;8.306;2022-12-18T13:40:53;62.97;;;39.70;;
15155;SDS011;7678;50.058;8.306;2022-12-18T13:43:24;60.27;;;37.13;;
15155;SDS011;7678;50.058;8.306;2022-12-18T13:46:04;64.10;;;38.30;;
15155;SDS011;7678;50.058;8.306;2022-12-18T13:48:49;61.73;;;37.23;;
15155;SDS011;7678;50.058;8.306;2022-12-18T13:51:24;62.83;;;37.27;;
15155;SDS011;7678;50.058;8.306;2022-12-18T13:53:53;66.67;;;39.10;;
15155;SDS011;7678;50.058;8.306;2022-12-18T13:56:27;64.63;;;37.20;;
15155;SDS011;7678;50.058;8.306;2022-12-18T13:59:10;67.00;;;38.20;;
15155;SDS011;7678;50.058;8.306;2022-12-18T14:01:42;68.23;;;41.30;;
15155;SDS011;7678;50.058;8.306;2022-12-18T14:04:19;62.83;;;38.90;;
15155;SDS011;7678;50.058;8.306;2022-12-18T14:06:55;62.00;;;37.70;;
15155;SDS011;7678;50.058;8.306;2022-12-18T14:09:27;68.57;;;40.67;;
15155;SDS011;7678;50.058;8.306;2022-12-18T14:11:58;68.10;;;39.23;;
15155;SDS011;7678;50.058;8.306;2022-12-18T14:14:48;69.57;;;39.43;;
15155;SDS011;7678;50.058;8.306;2022-12-18T14:17:20;70.13;;;40.17;;
15155;SDS011;7678;50.058;8.306;2022-12-18T14:19:50;66.70;;;39.50;;
15155;SDS011;7678;50.058;8.306;2022-12-18T14:22:20;65.53;;;39.20;;
15155;SDS011;7678;50.058;8.306;2022-12-18T14:25:05;74.17;;;43.37;;
15155;SDS011;7678;50.058;8.306;2022-12-18T14:27:42;68.03;;;40.13;;
15155;SDS011;7678;50.058;8.306;2022-12-18T14:30:27;68.67;;;40.47;;
15155;SDS011;7678;50.058;8.306;2022-12-18T14:33:00;65.53;;;37.97;;
15155;SDS011;7678;50.058;8.306;2022-12-18T14:35:29;70.30;;;41.07;;
15155;SDS011;7678;50.058;8.306;2022-12-18T14:38:22;72.27;;;40.47;;
15155;SDS011;7678;50.058;8.306;2022-12-18T14:40:52;67.93;;;39.70;;
15155;SDS011;7678;50.058;8.306;2022-12-18T14:43:29;67.93;;;39.27;;
15155;SDS011;7678;50.058;8.306;2022-12-18T14:46:00;72.00;;;41.93;;
15155;SDS011;7678;50.058;8.306;2022-12-18T14:48:35;68.90;;;40.57;;
15155;SDS011;7678;50.058;8.306;2022-12-18T14:51:06;75.67;;;44.93;;
15155;SDS011;7678;50.058;8.306;2022-12-18T14:53:44;64.20;;;38.80;;
15155;SDS011;7678;50.058;8.306;2022-12-18T14:56:21;66.83;;;38.70;;
15155;SDS011;7678;50.058;8.306;2022-12-18T14:58:57;67.27;;;38.90;;
15155;SDS011;7678;50.058;8.306;2022-12-18T15:01:28;67.30;;;39.43;;
15155;SDS011;7678;50.058;8.306;2022-12-18T15:03:59;63.23;;;37.60;;
15155;SDS011;7678;50.058;8.306;2022-12-18T15:06:29;63.93;;;37.80;;
15155;SDS011;7678;50.058;8.306;2022-12-18T15:09:01;69.37;;;39.93;;
15155;SDS011;7678;50.058;8.306;2022-12-18T15:11:35;68.10;;;40.37;;